createdAt,value
2023-03-22T00:02:02.760Z,99047.19
2023-03-22T00:04:34.424Z,99044.56
2023-03-22T00:07:06.147Z,99039.25
2023-03-22T00:09:37.829Z,99040.72
2023-03-22T00:12:09.706Z,99037.03
2023-03-22T00:14:41.520Z,99030.53
2023-03-22T00:17:13.202Z,99039.31
2023-03-22T00:19:45.028Z,99035.19
2023-03-22T00:22:17.788Z,99025.41
2023-03-22T00:24:49.480Z,99032.19
2023-03-22T00:27:21.158Z,99026.81
2023-03-22T00:29:53.200Z,99023.59
2023-03-22T00:32:24.894Z,99021.34
2023-03-22T00:34:58.862Z,99019.69
2023-03-22T00:37:38.811Z,99008.63
2023-03-22T00:40:14.245Z,99011.25
2023-03-22T00:42:46.094Z,99017.63
2023-03-22T00:45:17.808Z,99008.22
2023-03-22T00:47:49.545Z,99005.56
2023-03-22T00:50:23.209Z,99005.19
2023-03-22T00:52:55.067Z,99005.38
2023-03-22T00:55:27.865Z,99000.00
2023-03-22T00:57:59.667Z,99000.78
2023-03-22T01:00:33.628Z,98997.47
2023-03-22T01:03:05.594Z,98995.47
2023-03-22T01:05:37.765Z,98997.72
2023-03-22T01:08:10.554Z,98996.53
2023-03-22T01:10:43.802Z,98990.06
2023-03-22T01:13:17.851Z,98998.00
2023-03-22T01:15:51.168Z,98997.53
2023-03-22T01:18:23.456Z,99007.31
2023-03-22T01:20:55.408Z,99002.84
2023-03-22T01:23:27.618Z,99004.44
2023-03-22T01:25:59.811Z,99004.19
2023-03-22T01:28:31.596Z,98996.41
2023-03-22T01:31:04.079Z,98992.13
2023-03-22T01:33:36.732Z,98994.34
2023-03-22T01:36:08.688Z,98991.06
2023-03-22T01:38:41.016Z,98985.75
2023-03-22T01:41:12.934Z,98986.97
2023-03-22T01:44:13.733Z,98987.41
2023-03-22T01:46:47.829Z,98980.09
2023-03-22T01:49:31.219Z,98978.06
2023-03-22T01:52:14.685Z,98979.69
2023-03-22T01:54:55.011Z,98978.06
2023-03-22T01:57:40.932Z,98970.25
2023-03-22T02:00:19.005Z,98963.06
2023-03-22T02:03:19.012Z,98966.72
2023-03-22T02:05:53.965Z,98969.19
2023-03-22T02:08:29.061Z,98964.31
2023-03-22T02:11:04.815Z,98965.97
2023-03-22T02:13:51.816Z,98962.66
2023-03-22T02:17:01.217Z,98963.31
2023-03-22T02:19:45.564Z,98955.53
2023-03-22T02:22:42.371Z,98959.59
2023-03-22T02:25:51.941Z,98962.00
2023-03-22T02:28:54.327Z,98967.28
2023-03-22T02:31:51.184Z,98973.16
2023-03-22T02:34:44.342Z,98972.28
2023-03-22T02:37:37.724Z,98976.94
2023-03-22T02:40:18.688Z,98979.75
2023-03-22T02:43:08.324Z,98979.97
2023-03-22T02:45:55.637Z,98976.69
2023-03-22T02:48:32.486Z,98968.47
2023-03-22T02:51:13.424Z,98964.13
2023-03-22T02:53:57.955Z,98969.41
2023-03-22T02:56:39.213Z,98963.94
2023-03-22T02:59:15.965Z,98960.91
2023-03-22T03:01:52.316Z,98954.78
2023-03-22T03:04:37.477Z,98954.78
2023-03-22T03:07:13.105Z,98959.81
2023-03-22T03:09:49.153Z,98967.06
2023-03-22T03:12:26.189Z,98974.38
2023-03-22T03:15:00.529Z,98975.59
2023-03-22T03:17:35.190Z,98973.28
2023-03-22T03:20:16.796Z,98973.22
2023-03-22T03:23:07.323Z,98987.19
2023-03-22T03:26:01.603Z,98981.25
2023-03-22T03:29:05.669Z,98975.47
2023-03-22T03:31:46.403Z,98982.16
2023-03-22T03:34:36.272Z,98969.94
2023-03-22T03:37:15.066Z,98978.25
2023-03-22T03:40:01.696Z,98978.59
2023-03-22T03:42:34.530Z,98986.09
2023-03-22T03:45:08.469Z,98980.34
2023-03-22T03:47:41.052Z,98981.06
2023-03-22T03:50:16.206Z,98982.19
2023-03-22T03:52:52.366Z,98994.13
2023-03-22T03:55:27.168Z,98984.91
2023-03-22T03:57:58.988Z,98984.47
2023-03-22T04:00:31.133Z,98981.53
2023-03-22T04:03:31.503Z,98984.91
2023-03-22T04:06:18.088Z,98982.78
2023-03-22T04:08:56.684Z,98991.25
2023-03-22T04:11:32.767Z,98989.34
2023-03-22T04:14:07.083Z,98989.88
2023-03-22T04:16:38.810Z,98988.66
2023-03-22T04:19:14.554Z,98989.09
2023-03-22T04:21:46.355Z,98984.66
2023-03-22T04:24:18.129Z,98987.94
2023-03-22T04:26:52.706Z,98993.41
2023-03-22T04:29:32.121Z,98998.03
2023-03-22T04:32:19.523Z,98997.75
2023-03-22T04:34:52.680Z,98993.00
2023-03-22T04:37:27.161Z,98993.34
2023-03-22T04:40:16.545Z,98990.91
2023-03-22T04:43:05.092Z,98992.44
2023-03-22T04:46:01.736Z,98985.00
2023-03-22T04:48:41.748Z,98980.09
2023-03-22T04:51:16.118Z,98981.63
2023-03-22T04:54:00.319Z,98977.50
2023-03-22T04:56:32.134Z,98974.25
2023-03-22T04:59:04.629Z,98985.97
2023-03-22T05:01:37.581Z,98989.75
2023-03-22T05:04:21.934Z,98982.22
2023-03-22T05:06:58.453Z,98983.84
2023-03-22T05:09:37.709Z,98979.72
2023-03-22T05:12:09.500Z,98978.09
2023-03-22T05:14:51.448Z,98979.41
2023-03-22T05:17:27.924Z,98983.84
2023-03-22T05:20:09.317Z,98989.66
2023-03-22T05:22:45.315Z,98995.22
2023-03-22T05:25:17.032Z,98993.50
2023-03-22T05:27:54.168Z,99001.94
2023-03-22T05:30:52.073Z,99000.22
2023-03-22T05:33:34.781Z,98999.44
2023-03-22T05:36:08.952Z,98998.28
2023-03-22T05:38:52.434Z,98991.72
2023-03-22T05:41:24.500Z,98989.44
2023-03-22T05:43:56.371Z,98995.94
2023-03-22T05:46:28.468Z,98990.16
2023-03-22T05:49:31.803Z,98989.34
2023-03-22T05:52:06.080Z,98994.63
2023-03-22T05:54:56.822Z,98993.63
2023-03-22T05:57:30.156Z,98996.75
2023-03-22T06:00:02.594Z,98996.53
2023-03-22T06:02:47.295Z,98991.13
2023-03-22T06:05:21.069Z,98987.53
2023-03-22T06:07:53.966Z,98992.09
2023-03-22T06:10:28.122Z,98990.50
2023-03-22T06:13:00.418Z,98994.13
2023-03-22T06:15:36.214Z,98986.63
2023-03-22T06:18:28.279Z,98992.81
2023-03-22T06:21:07.401Z,98990.13
2023-03-22T06:23:39.235Z,98999.72
2023-03-22T06:26:13.300Z,99004.41
2023-03-22T06:28:46.893Z,98991.47
2023-03-22T06:31:18.706Z,99002.63
2023-03-22T06:33:57.734Z,98999.28
2023-03-22T06:36:36.029Z,98988.88
2023-03-22T06:39:17.872Z,98992.28
2023-03-22T06:41:50.720Z,98999.41
2023-03-22T06:44:22.999Z,99001.56
2023-03-22T06:47:10.556Z,98999.34
2023-03-22T06:49:58.814Z,99002.81
2023-03-22T06:52:42.173Z,98997.72
2023-03-22T06:55:13.951Z,98992.75
2023-03-22T06:57:45.678Z,98994.75
2023-03-22T07:00:17.708Z,98993.94
2023-03-22T07:02:52.231Z,98991.47
2023-03-22T07:05:41.104Z,98990.22
2023-03-22T07:08:12.933Z,98988.59
2023-03-22T07:10:53.021Z,98982.50
2023-03-22T07:13:28.792Z,98988.16
2023-03-22T07:16:05.216Z,98982.09
2023-03-22T07:18:58.256Z,98985.50
2023-03-22T07:21:30.052Z,98987.28
2023-03-22T07:24:07.803Z,98985.19
2023-03-22T07:26:40.958Z,98984.94
2023-03-22T07:29:14.464Z,98984.38
2023-03-22T07:31:46.265Z,98978.91
2023-03-22T07:34:28.180Z,98982.72
2023-03-22T07:37:07.414Z,98974.06
2023-03-22T07:39:39.520Z,98974.41
2023-03-22T07:42:11.826Z,98983.72
2023-03-22T07:44:52.517Z,98974.63
2023-03-22T07:47:39.520Z,98972.72
2023-03-22T07:50:23.791Z,98966.59
2023-03-22T07:53:00.377Z,98968.81
2023-03-22T07:55:32.226Z,98967.25
2023-03-22T07:58:04.481Z,98965.88
2023-03-22T08:00:36.234Z,98964.56
2023-03-22T08:03:43.025Z,98960.44
2023-03-22T08:06:37.185Z,98950.19
2023-03-22T08:09:09.146Z,98950.38
2023-03-22T08:11:41.298Z,98952.56
2023-03-22T08:14:13.931Z,98947.75
2023-03-22T08:16:46.438Z,98942.34
2023-03-22T08:19:18.640Z,98939.75
2023-03-22T08:21:51.573Z,98934.72
2023-03-22T08:24:49.138Z,98943.59
2023-03-22T08:27:33.485Z,98932.94
2023-03-22T08:30:06.800Z,98944.28
2023-03-22T08:32:41.384Z,98943.56
2023-03-22T08:35:13.349Z,98935.44
2023-03-22T08:37:46.191Z,98939.25
2023-03-22T08:40:19.403Z,98938.72
2023-03-22T08:42:56.790Z,98941.25
2023-03-22T08:45:29.109Z,98931.03
2023-03-22T08:48:09.664Z,98929.09
2023-03-22T08:51:01.144Z,98930.38
2023-03-22T08:53:42.102Z,98932.00
2023-03-22T08:56:49.234Z,98920.97
2023-03-22T08:59:41.147Z,98918.28
2023-03-22T09:02:27.502Z,98914.84
2023-03-22T09:05:00.561Z,98915.34
2023-03-22T09:07:32.479Z,98912.34
2023-03-22T09:10:16.801Z,98923.56
2023-03-22T09:12:51.399Z,98916.88
2023-03-22T09:15:23.272Z,98916.63
2023-03-22T09:18:09.598Z,98909.25
2023-03-22T09:20:41.592Z,98912.22
2023-03-22T09:23:15.548Z,98911.47
2023-03-22T09:25:48.678Z,98912.53
2023-03-22T09:28:25.340Z,98909.03
2023-03-22T09:31:03.451Z,98915.00
2023-03-22T09:33:38.847Z,98892.63
2023-03-22T09:36:11.989Z,98889.44
2023-03-22T09:38:45.403Z,98897.00
2023-03-22T09:41:22.535Z,98888.38
2023-03-22T09:43:59.775Z,98886.25
2023-03-22T09:46:38.839Z,98882.50
2023-03-22T09:49:26.186Z,98879.78
2023-03-22T09:51:59.995Z,98869.25
2023-03-22T09:54:35.941Z,98879.56
2023-03-22T09:57:16.324Z,98872.25
2023-03-22T10:00:15.609Z,98869.28
2023-03-22T10:03:02.642Z,98864.41
2023-03-22T10:05:48.283Z,98871.03
2023-03-22T10:08:48.326Z,98862.91
2023-03-22T10:11:32.033Z,98857.59
2023-03-22T10:14:09.432Z,98856.50
2023-03-22T10:16:41.806Z,98850.34
2023-03-22T10:19:29.076Z,98841.16
2023-03-22T10:22:04.057Z,98845.50
2023-03-22T10:24:38.453Z,98844.69
2023-03-22T10:27:17.423Z,98847.69
2023-03-22T10:29:54.900Z,98842.81
2023-03-22T10:32:57.500Z,98829.81
2023-03-22T10:35:31.735Z,98830.06
2023-03-22T10:38:07.370Z,98830.88
2023-03-22T10:40:42.222Z,98831.59
2023-03-22T10:43:30.121Z,98823.56
2023-03-22T10:46:07.648Z,98827.41
2023-03-22T10:48:45.538Z,98825.69
2023-03-22T10:51:30.729Z,98813.56
2023-03-22T10:54:03.367Z,98816.69
2023-03-22T10:56:35.035Z,98813.78
2023-03-22T10:59:06.789Z,98812.81
2023-03-22T11:01:44.899Z,98804.94
2023-03-22T11:04:17.181Z,98798.50
2023-03-22T11:06:53.347Z,98796.34
2023-03-22T11:09:26.472Z,98806.19
2023-03-22T11:12:01.480Z,98804.16
2023-03-22T11:14:36.870Z,98795.03
2023-03-22T11:17:14.246Z,98796.28
2023-03-22T11:20:01.288Z,98780.41
2023-03-22T11:22:45.370Z,98781.41
2023-03-22T11:25:28.419Z,98772.44
2023-03-22T11:28:16.746Z,98774.72
2023-03-22T11:31:08.740Z,98776.34
2023-03-22T11:33:58.208Z,98771.63
2023-03-22T11:36:30.022Z,98759.56
2023-03-22T11:39:07.386Z,98752.28
2023-03-22T11:41:40.866Z,98748.88
2023-03-22T11:44:16.610Z,98747.22
2023-03-22T11:47:00.770Z,98743.13
2023-03-22T11:49:45.563Z,98738.47
2023-03-22T11:52:22.916Z,98733.44
2023-03-22T11:54:56.234Z,98722.50
2023-03-22T11:57:31.547Z,98721.69
2023-03-22T12:00:18.211Z,98738.91
2023-03-22T12:02:54.941Z,98723.31
2023-03-22T12:05:41.465Z,98720.28
2023-03-22T12:08:25.307Z,98722.19
2023-03-22T12:11:17.831Z,98713.22
2023-03-22T12:14:00.097Z,98720.22
2023-03-22T12:16:41.029Z,98713.16
2023-03-22T12:19:41.835Z,98706.41
2023-03-22T12:22:23.201Z,98702.84
2023-03-22T12:24:54.879Z,98695.91
2023-03-22T12:27:42.588Z,98697.03
2023-03-22T12:30:22.027Z,98690.28
2023-03-22T12:33:00.116Z,98680.00
2023-03-22T12:35:35.184Z,98678.97
2023-03-22T12:38:36.735Z,98671.41
2023-03-22T12:41:14.891Z,98685.19
2023-03-22T12:43:56.609Z,98662.56
2023-03-22T12:46:40.102Z,98662.53
2023-03-22T12:49:44.350Z,98646.91
2023-03-22T12:52:19.056Z,98649.63
2023-03-22T12:54:52.576Z,98646.91
2023-03-22T12:57:24.575Z,98644.72
2023-03-22T13:00:00.446Z,98645.00
2023-03-22T13:02:34.359Z,98642.03
2023-03-22T13:05:09.372Z,98636.13
2023-03-22T13:07:47.086Z,98633.69
2023-03-22T13:10:31.205Z,98629.41
2023-03-22T13:13:14.764Z,98639.63
2023-03-22T13:16:09.621Z,98622.63
2023-03-22T13:18:44.547Z,98620.75
2023-03-22T13:21:19.310Z,98622.59
2023-03-22T13:24:01.994Z,98619.13
2023-03-22T13:26:43.679Z,98625.84
2023-03-22T13:29:17.609Z,98619.63
2023-03-22T13:31:52.374Z,98613.44
2023-03-22T13:34:32.214Z,98615.06
2023-03-22T13:37:09.935Z,98617.19
2023-03-22T13:39:41.698Z,98605.91
2023-03-22T13:42:20.015Z,98611.25
2023-03-22T13:44:57.066Z,98607.19
2023-03-22T13:47:36.176Z,98609.34
2023-03-22T13:50:23.476Z,98602.59
2023-03-22T13:53:15.785Z,98605.59
2023-03-22T13:55:51.416Z,98606.63
2023-03-22T13:58:49.989Z,98609.25
2023-03-22T14:01:29.370Z,98598.97
2023-03-22T14:04:06.887Z,98602.91
2023-03-22T14:06:54.251Z,98594.88
2023-03-22T14:09:35.868Z,98596.50
2023-03-22T14:12:21.245Z,98595.69
2023-03-22T14:14:57.055Z,98579.19
2023-03-22T14:17:47.051Z,98586.25
2023-03-22T14:20:23.388Z,98573.31
